sensor_id;sensor_type;location;lat;lon;timestamp;P1;durP1;ratioP1;P2;durP2;ratioP2
72920;SDS011;61064;51.654;5.476;2023-05-19T00:01:45;13.40;;;4.40;;
72920;SDS011;61064;51.654;5.476;2023-05-19T00:04:12;9.68;;;4.00;;
72920;SDS011;61064;51.654;5.476;2023-05-19T00:06:38;11.02;;;4.28;;
72920;SDS011;61064;51.654;5.476;2023-05-19T00:09:06;11.40;;;3.97;;
72920;SDS011;61064;51.654;5.476;2023-05-19T00:11:33;11.93;;;4.15;;
72920;SDS011;61064;51.654;5.476;2023-05-19T00:14:00;10.63;;;3.60;;
72920;SDS011;61064;51.654;5.476;2023-05-19T00:16:26;13.48;;;4.45;;
72920;SDS011;61064;51.654;5.476;2023-05-19T00:18:53;11.02;;;3.63;;
72920;SDS011;61064;51.654;5.476;2023-05-19T00:21:18;11.17;;;3.57;;
72920;SDS011;61064;51.654;5.476;2023-05-19T00:23:44;11.52;;;3.70;;
72920;SDS011;61064;51.654;5.476;2023-05-19T00:26:09;8.43;;;3.20;;
72920;SDS011;61064;51.654;5.476;2023-05-19T00:28:35;9.73;;;3.22;;
72920;SDS011;61064;51.654;5.476;2023-05-19T00:31:01;13.63;;;3.80;;
72920;SDS011;61064;51.654;5.476;2023-05-19T00:33:28;9.87;;;3.37;;
72920;SDS011;61064;51.654;5.476;2023-05-19T00:35:53;10.43;;;3.42;;
72920;SDS011;61064;51.654;5.476;2023-05-19T00:38:19;10.20;;;3.47;;
72920;SDS011;61064;51.654;5.476;2023-05-19T00:40:44;9.10;;;3.60;;
72920;SDS011;61064;51.654;5.476;2023-05-19T00:43:10;9.37;;;3.60;;
72920;SDS011;61064;51.654;5.476;2023-05-19T00:45:35;10.87;;;3.70;;
72920;SDS011;61064;51.654;5.476;2023-05-19T00:48:00;11.33;;;3.40;;
72920;SDS011;61064;51.654;5.476;2023-05-19T00:50:26;10.87;;;3.80;;
72920;SDS011;61064;51.654;5.476;2023-05-19T00:52:52;11.32;;;3.55;;
72920;SDS011;61064;51.654;5.476;2023-05-19T00:55:25;9.63;;;3.83;;
72920;SDS011;61064;51.654;5.476;2023-05-19T00:57:53;12.75;;;3.70;;
72920;SDS011;61064;51.654;5.476;2023-05-19T01:00:20;11.82;;;3.50;;
72920;SDS011;61064;51.654;5.476;2023-05-19T01:02:46;9.37;;;3.20;;
72920;SDS011;61064;51.654;5.476;2023-05-19T01:05:11;9.90;;;3.50;;
72920;SDS011;61064;51.654;5.476;2023-05-19T01:07:38;10.03;;;3.10;;
72920;SDS011;61064;51.654;5.476;2023-05-19T01:10:05;11.82;;;3.67;;
72920;SDS011;61064;51.654;5.476;2023-05-19T01:12:31;8.85;;;3.28;;
72920;SDS011;61064;51.654;5.476;2023-05-19T01:14:56;13.50;;;3.83;;
72920;SDS011;61064;51.654;5.476;2023-05-19T01:20:02;11.13;;;3.67;;
72920;SDS011;61064;51.654;5.476;2023-05-19T01:30:53;11.35;;;3.88;;
72920;SDS011;61064;51.654;5.476;2023-05-19T01:33:20;12.30;;;3.90;;
72920;SDS011;61064;51.654;5.476;2023-05-19T01:35:47;9.35;;;3.63;;
72920;SDS011;61064;51.654;5.476;2023-05-19T01:38:14;9.47;;;3.83;;
72920;SDS011;61064;51.654;5.476;2023-05-19T01:40:41;12.52;;;3.80;;
72920;SDS011;61064;51.654;5.476;2023-05-19T01:43:10;9.23;;;3.50;;
72920;SDS011;61064;51.654;5.476;2023-05-19T01:45:38;11.65;;;3.95;;
72920;SDS011;61064;51.654;5.476;2023-05-19T01:48:04;9.27;;;3.70;;
72920;SDS011;61064;51.654;5.476;2023-05-19T01:50:30;9.03;;;3.80;;
72920;SDS011;61064;51.654;5.476;2023-05-19T01:52:56;9.50;;;3.85;;
72920;SDS011;61064;51.654;5.476;2023-05-19T01:55:22;11.10;;;3.60;;
72920;SDS011;61064;51.654;5.476;2023-05-19T01:57:55;10.63;;;3.70;;
72920;SDS011;61064;51.654;5.476;2023-05-19T02:03:43;8.65;;;3.75;;
72920;SDS011;61064;51.654;5.476;2023-05-19T02:06:41;11.40;;;4.20;;
72920;SDS011;61064;51.654;5.476;2023-05-19T02:09:14;10.48;;;3.65;;
72920;SDS011;61064;51.654;5.476;2023-05-19T02:14:19;10.50;;;3.80;;
72920;SDS011;61064;51.654;5.476;2023-05-19T02:16:48;14.25;;;4.10;;
72920;SDS011;61064;51.654;5.476;2023-05-19T02:21:54;11.10;;;4.03;;
72920;SDS011;61064;51.654;5.476;2023-05-19T02:24:20;11.73;;;4.30;;
72920;SDS011;61064;51.654;5.476;2023-05-19T02:26:47;10.07;;;3.75;;
72920;SDS011;61064;51.654;5.476;2023-05-19T02:29:13;11.03;;;3.87;;
72920;SDS011;61064;51.654;5.476;2023-05-19T02:31:38;11.52;;;3.92;;
72920;SDS011;61064;51.654;5.476;2023-05-19T02:34:04;11.33;;;4.10;;
72920;SDS011;61064;51.654;5.476;2023-05-19T02:36:33;9.57;;;3.50;;
72920;SDS011;61064;51.654;5.476;2023-05-19T02:39:01;11.05;;;4.13;;
72920;SDS011;61064;51.654;5.476;2023-05-19T02:41:29;10.90;;;3.90;;
72920;SDS011;61064;51.654;5.476;2023-05-19T02:43:54;11.13;;;4.20;;
72920;SDS011;61064;51.654;5.476;2023-05-19T02:46:20;10.67;;;4.00;;
72920;SDS011;61064;51.654;5.476;2023-05-19T02:48:45;11.20;;;4.25;;
72920;SDS011;61064;51.654;5.476;2023-05-19T02:51:10;9.77;;;3.50;;
72920;SDS011;61064;51.654;5.476;2023-05-19T02:53:36;10.67;;;4.30;;
72920;SDS011;61064;51.654;5.476;2023-05-19T02:56:01;12.20;;;3.90;;
72920;SDS011;61064;51.654;5.476;2023-05-19T02:58:27;10.70;;;4.07;;
72920;SDS011;61064;51.654;5.476;2023-05-19T03:00:52;12.70;;;4.30;;
72920;SDS011;61064;51.654;5.476;2023-05-19T03:03:17;11.63;;;3.80;;
72920;SDS011;61064;51.654;5.476;2023-05-19T03:05:43;12.07;;;4.23;;
72920;SDS011;61064;51.654;5.476;2023-05-19T03:08:08;10.27;;;3.90;;
72920;SDS011;61064;51.654;5.476;2023-05-19T03:10:34;11.13;;;4.40;;
72920;SDS011;61064;51.654;5.476;2023-05-19T03:13:00;10.20;;;3.80;;
72920;SDS011;61064;51.654;5.476;2023-05-19T03:15:25;13.57;;;4.27;;
72920;SDS011;61064;51.654;5.476;2023-05-19T03:17:50;9.52;;;3.97;;
72920;SDS011;61064;51.654;5.476;2023-05-19T03:20:16;11.67;;;4.77;;
72920;SDS011;61064;51.654;5.476;2023-05-19T03:22:42;12.00;;;4.33;;
72920;SDS011;61064;51.654;5.476;2023-05-19T03:25:07;13.73;;;4.50;;
72920;SDS011;61064;51.654;5.476;2023-05-19T03:27:33;11.87;;;4.20;;
72920;SDS011;61064;51.654;5.476;2023-05-19T03:29:58;11.40;;;4.23;;
72920;SDS011;61064;51.654;5.476;2023-05-19T03:32:24;13.10;;;4.40;;
72920;SDS011;61064;51.654;5.476;2023-05-19T03:34:49;12.27;;;4.10;;
72920;SDS011;61064;51.654;5.476;2023-05-19T03:37:15;13.33;;;4.67;;
72920;SDS011;61064;51.654;5.476;2023-05-19T03:39:40;11.80;;;4.73;;
72920;SDS011;61064;51.654;5.476;2023-05-19T03:42:05;14.75;;;4.53;;
72920;SDS011;61064;51.654;5.476;2023-05-19T03:44:31;13.23;;;4.20;;
72920;SDS011;61064;51.654;5.476;2023-05-19T03:46:56;11.97;;;4.43;;
72920;SDS011;61064;51.654;5.476;2023-05-19T03:49:22;11.53;;;4.33;;
72920;SDS011;61064;51.654;5.476;2023-05-19T03:51:47;14.50;;;4.80;;
72920;SDS011;61064;51.654;5.476;2023-05-19T03:54:12;10.80;;;4.40;;
72920;SDS011;61064;51.654;5.476;2023-05-19T03:56:38;11.75;;;4.75;;
72920;SDS011;61064;51.654;5.476;2023-05-19T03:59:04;10.67;;;4.37;;
72920;SDS011;61064;51.654;5.476;2023-05-19T04:01:32;12.50;;;4.32;;
72920;SDS011;61064;51.654;5.476;2023-05-19T04:03:57;13.90;;;5.13;;
72920;SDS011;61064;51.654;5.476;2023-05-19T04:06:23;13.40;;;4.37;;
72920;SDS011;61064;51.654;5.476;2023-05-19T04:08:48;11.88;;;4.75;;
72920;SDS011;61064;51.654;5.476;2023-05-19T04:11:14;13.73;;;4.67;;
72920;SDS011;61064;51.654;5.476;2023-05-19T04:13:39;13.93;;;4.90;;
72920;SDS011;61064;51.654;5.476;2023-05-19T04:16:08;14.23;;;4.67;;
72920;SDS011;61064;51.654;5.476;2023-05-19T04:18:33;12.07;;;4.50;;
72920;SDS011;61064;51.654;5.476;2023-05-19T04:20:59;11.20;;;4.37;;
72920;SDS011;61064;51.654;5.476;2023-05-19T04:23:24;13.57;;;4.90;;
72920;SDS011;61064;51.654;5.476;2023-05-19T04:25:49;11.50;;;4.63;;
72920;SDS011;61064;51.654;5.476;2023-05-19T04:28:15;12.73;;;4.63;;
72920;SDS011;61064;51.654;5.476;2023-05-19T04:30:41;12.85;;;5.03;;
72920;SDS011;61064;51.654;5.476;2023-05-19T04:33:07;15.27;;;5.10;;
72920;SDS011;61064;51.654;5.476;2023-05-19T04:35:35;13.70;;;5.13;;
72920;SDS011;61064;51.654;5.476;2023-05-19T04:38:02;12.18;;;4.50;;
72920;SDS011;61064;51.654;5.476;2023-05-19T04:40:27;11.43;;;4.50;;
72920;SDS011;61064;51.654;5.476;2023-05-19T04:42:55;12.63;;;4.50;;
72920;SDS011;61064;51.654;5.476;2023-05-19T04:45:21;14.43;;;5.07;;
72920;SDS011;61064;51.654;5.476;2023-05-19T04:47:47;14.98;;;5.03;;
72920;SDS011;61064;51.654;5.476;2023-05-19T04:50:13;10.10;;;4.75;;
72920;SDS011;61064;51.654;5.476;2023-05-19T04:52:40;14.07;;;5.00;;
72920;SDS011;61064;51.654;5.476;2023-05-19T04:55:06;15.57;;;5.07;;
72920;SDS011;61064;51.654;5.476;2023-05-19T04:57:32;13.00;;;4.65;;
72920;SDS011;61064;51.654;5.476;2023-05-19T04:59:57;9.97;;;4.70;;
72920;SDS011;61064;51.654;5.476;2023-05-19T05:02:26;14.50;;;5.13;;
72920;SDS011;61064;51.654;5.476;2023-05-19T05:04:52;12.43;;;5.13;;
72920;SDS011;61064;51.654;5.476;2023-05-19T05:07:19;11.00;;;4.77;;
72920;SDS011;61064;51.654;5.476;2023-05-19T05:09:45;14.18;;;5.25;;
72920;SDS011;61064;51.654;5.476;2023-05-19T05:12:12;12.43;;;5.30;;
72920;SDS011;61064;51.654;5.476;2023-05-19T05:14:38;12.98;;;5.30;;
72920;SDS011;61064;51.654;5.476;2023-05-19T05:17:04;13.57;;;5.43;;
72920;SDS011;61064;51.654;5.476;2023-05-19T05:19:30;15.45;;;5.28;;
72920;SDS011;61064;51.654;5.476;2023-05-19T05:21:57;14.48;;;5.32;;
72920;SDS011;61064;51.654;5.476;2023-05-19T05:24:23;12.90;;;5.13;;
72920;SDS011;61064;51.654;5.476;2023-05-19T05:26:49;13.23;;;4.72;;
72920;SDS011;61064;51.654;5.476;2023-05-19T05:29:14;15.00;;;5.40;;
72920;SDS011;61064;51.654;5.476;2023-05-19T05:31:40;15.05;;;5.53;;
72920;SDS011;61064;51.654;5.476;2023-05-19T05:34:05;11.90;;;5.07;;
72920;SDS011;61064;51.654;5.476;2023-05-19T05:36:31;14.50;;;4.97;;
72920;SDS011;61064;51.654;5.476;2023-05-19T05:38:56;12.20;;;5.57;;
72920;SDS011;61064;51.654;5.476;2023-05-19T05:41:23;15.10;;;5.80;;
72920;SDS011;61064;51.654;5.476;2023-05-19T05:43:48;16.17;;;5.43;;
72920;SDS011;61064;51.654;5.476;2023-05-19T05:46:14;13.35;;;4.85;;
72920;SDS011;61064;51.654;5.476;2023-05-19T05:48:40;13.37;;;5.20;;
72920;SDS011;61064;51.654;5.476;2023-05-19T05:51:06;12.98;;;5.00;;
72920;SDS011;61064;51.654;5.476;2023-05-19T05:53:33;16.30;;;5.40;;
72920;SDS011;61064;51.654;5.476;2023-05-19T05:56:04;12.70;;;4.90;;
72920;SDS011;61064;51.654;5.476;2023-05-19T05:58:30;10.50;;;4.50;;
72920;SDS011;61064;51.654;5.476;2023-05-19T06:00:56;15.65;;;6.22;;
72920;SDS011;61064;51.654;5.476;2023-05-19T06:03:22;11.73;;;4.83;;
72920;SDS011;61064;51.654;5.476;2023-05-19T06:05:48;13.25;;;4.88;;
72920;SDS011;61064;51.654;5.476;2023-05-19T06:08:13;10.93;;;4.50;;
72920;SDS011;61064;51.654;5.476;2023-05-19T06:10:39;10.57;;;4.70;;
72920;SDS011;61064;51.654;5.476;2023-05-19T06:13:05;9.82;;;4.32;;
72920;SDS011;61064;51.654;5.476;2023-05-19T06:15:31;12.70;;;4.57;;
72920;SDS011;61064;51.654;5.476;2023-05-19T06:17:56;14.52;;;4.50;;
72920;SDS011;61064;51.654;5.476;2023-05-19T06:20:21;11.53;;;4.53;;
72920;SDS011;61064;51.654;5.476;2023-05-19T06:22:48;13.07;;;5.20;;
72920;SDS011;61064;51.654;5.476;2023-05-19T06:25:13;13.47;;;4.73;;
72920;SDS011;61064;51.654;5.476;2023-05-19T06:27:38;12.27;;;4.50;;
72920;SDS011;61064;51.654;5.476;2023-05-19T06:30:04;14.20;;;4.83;;
72920;SDS011;61064;51.654;5.476;2023-05-19T06:32:32;12.20;;;4.45;;
72920;SDS011;61064;51.654;5.476;2023-05-19T06:34:57;11.30;;;4.50;;
72920;SDS011;61064;51.654;5.476;2023-05-19T06:37:23;10.93;;;4.00;;
72920;SDS011;61064;51.654;5.476;2023-05-19T06:39:51;11.43;;;4.13;;
72920;SDS011;61064;51.654;5.476;2023-05-19T06:42:20;12.47;;;4.00;;
72920;SDS011;61064;51.654;5.476;2023-05-19T06:44:47;12.98;;;4.10;;
72920;SDS011;61064;51.654;5.476;2023-05-19T06:47:13;15.02;;;4.57;;
72920;SDS011;61064;51.654;5.476;2023-05-19T06:49:39;13.37;;;4.70;;
72920;SDS011;61064;51.654;5.476;2023-05-19T06:52:04;9.50;;;3.90;;
72920;SDS011;61064;51.654;5.476;2023-05-19T06:54:29;12.47;;;4.00;;
72920;SDS011;61064;51.654;5.476;2023-05-19T06:56:55;10.53;;;4.10;;
72920;SDS011;61064;51.654;5.476;2023-05-19T06:59:20;14.60;;;4.50;;
72920;SDS011;61064;51.654;5.476;2023-05-19T07:01:47;10.20;;;4.05;;
72920;SDS011;61064;51.654;5.476;2023-05-19T07:04:12;11.90;;;4.53;;
72920;SDS011;61064;51.654;5.476;2023-05-19T07:06:38;11.70;;;4.17;;
72920;SDS011;61064;51.654;5.476;2023-05-19T07:09:03;12.45;;;4.00;;
72920;SDS011;61064;51.654;5.476;2023-05-19T07:11:29;11.20;;;4.10;;
72920;SDS011;61064;51.654;5.476;2023-05-19T07:13:55;11.52;;;4.20;;
72920;SDS011;61064;51.654;5.476;2023-05-19T07:16:20;11.67;;;4.40;;
72920;SDS011;61064;51.654;5.476;2023-05-19T07:18:45;13.77;;;4.43;;
72920;SDS011;61064;51.654;5.476;2023-05-19T07:21:11;12.60;;;5.27;;
72920;SDS011;61064;51.654;5.476;2023-05-19T07:23:36;12.00;;;4.37;;
72920;SDS011;61064;51.654;5.476;2023-05-19T07:26:01;13.93;;;4.37;;
72920;SDS011;61064;51.654;5.476;2023-05-19T07:28:27;12.03;;;4.63;;
72920;SDS011;61064;51.654;5.476;2023-05-19T07:30:52;10.27;;;3.97;;
72920;SDS011;61064;51.654;5.476;2023-05-19T07:33:17;9.47;;;3.87;;
72920;SDS011;61064;51.654;5.476;2023-05-19T07:35:43;11.97;;;4.10;;
72920;SDS011;61064;51.654;5.476;2023-05-19T07:38:09;12.45;;;4.20;;
72920;SDS011;61064;51.654;5.476;2023-05-19T07:40:34;10.07;;;3.87;;
72920;SDS011;61064;51.654;5.476;2023-05-19T07:43:00;12.65;;;3.53;;
72920;SDS011;61064;51.654;5.476;2023-05-19T07:45:25;9.77;;;3.47;;
72920;SDS011;61064;51.654;5.476;2023-05-19T07:47:52;13.00;;;3.40;;
72920;SDS011;61064;51.654;5.476;2023-05-19T07:50:17;8.40;;;3.30;;
72920;SDS011;61064;51.654;5.476;2023-05-19T07:52:43;12.73;;;3.70;;
72920;SDS011;61064;51.654;5.476;2023-05-19T07:55:08;11.80;;;3.20;;
72920;SDS011;61064;51.654;5.476;2023-05-19T07:57:34;11.57;;;3.03;;
72920;SDS011;61064;51.654;5.476;2023-05-19T07:59:59;10.60;;;3.50;;
72920;SDS011;61064;51.654;5.476;2023-05-19T08:02:25;9.77;;;2.90;;
72920;SDS011;61064;51.654;5.476;2023-05-19T08:04:50;8.07;;;2.73;;
72920;SDS011;61064;51.654;5.476;2023-05-19T08:07:16;10.75;;;3.03;;
72920;SDS011;61064;51.654;5.476;2023-05-19T08:09:42;9.93;;;2.90;;
72920;SDS011;61064;51.654;5.476;2023-05-19T08:12:07;8.67;;;2.70;;
72920;SDS011;61064;51.654;5.476;2023-05-19T08:14:32;11.67;;;2.90;;
72920;SDS011;61064;51.654;5.476;2023-05-19T08:16:58;9.77;;;2.92;;
72920;SDS011;61064;51.654;5.476;2023-05-19T08:19:30;10.80;;;2.70;;
72920;SDS011;61064;51.654;5.476;2023-05-19T08:22:07;7.35;;;2.42;;
72920;SDS011;61064;51.654;5.476;2023-05-19T08:24:33;9.60;;;2.53;;
72920;SDS011;61064;51.654;5.476;2023-05-19T08:26:58;9.20;;;2.03;;
72920;SDS011;61064;51.654;5.476;2023-05-19T08:29:24;7.23;;;2.00;;
72920;SDS011;61064;51.654;5.476;2023-05-19T08:31:49;10.53;;;2.63;;
72920;SDS011;61064;51.654;5.476;2023-05-19T08:34:16;8.98;;;2.38;;
72920;SDS011;61064;51.654;5.476;2023-05-19T08:36:46;7.38;;;2.22;;
72920;SDS011;61064;51.654;5.476;2023-05-19T08:39:11;7.73;;;1.77;;
72920;SDS011;61064;51.654;5.476;2023-05-19T08:41:38;13.20;;;2.50;;
72920;SDS011;61064;51.654;5.476;2023-05-19T08:44:03;9.17;;;2.23;;
72920;SDS011;61064;51.654;5.476;2023-05-19T08:46:29;8.40;;;2.15;;
72920;SDS011;61064;51.654;5.476;2023-05-19T08:48:57;8.45;;;2.13;;
72920;SDS011;61064;51.654;5.476;2023-05-19T08:51:42;9.10;;;2.30;;
72920;SDS011;61064;51.654;5.476;2023-05-19T08:54:22;9.73;;;2.35;;
72920;SDS011;61064;51.654;5.476;2023-05-19T08:56:54;9.40;;;2.00;;
72920;SDS011;61064;51.654;5.476;2023-05-19T08:59:20;8.45;;;1.85;;
72920;SDS011;61064;51.654;5.476;2023-05-19T09:01:46;9.10;;;2.17;;
72920;SDS011;61064;51.654;5.476;2023-05-19T09:04:19;11.20;;;1.90;;
72920;SDS011;61064;51.654;5.476;2023-05-19T09:06:44;8.13;;;1.80;;
72920;SDS011;61064;51.654;5.476;2023-05-19T09:09:10;11.50;;;2.03;;
72920;SDS011;61064;51.654;5.476;2023-05-19T09:11:36;7.90;;;1.52;;
72920;SDS011;61064;51.654;5.476;2023-05-19T09:14:02;7.57;;;1.40;;
72920;SDS011;61064;51.654;5.476;2023-05-19T09:16:28;8.80;;;1.70;;
72920;SDS011;61064;51.654;5.476;2023-05-19T09:18:55;7.43;;;1.48;;
72920;SDS011;61064;51.654;5.476;2023-05-19T09:21:28;9.43;;;1.60;;
72920;SDS011;61064;51.654;5.476;2023-05-19T09:23:55;8.30;;;1.92;;
72920;SDS011;61064;51.654;5.476;2023-05-19T09:26:21;9.77;;;1.73;;
72920;SDS011;61064;51.654;5.476;2023-05-19T09:28:47;10.10;;;2.03;;
72920;SDS011;61064;51.654;5.476;2023-05-19T09:31:13;7.88;;;1.33;;
72920;SDS011;61064;51.654;5.476;2023-05-19T09:33:39;8.40;;;1.40;;
72920;SDS011;61064;51.654;5.476;2023-05-19T09:36:06;9.25;;;1.50;;
72920;SDS011;61064;51.654;5.476;2023-05-19T09:38:42;7.60;;;1.30;;
72920;SDS011;61064;51.654;5.476;2023-05-19T09:41:07;6.25;;;1.52;;
72920;SDS011;61064;51.654;5.476;2023-05-19T09:43:33;7.73;;;1.40;;
72920;SDS011;61064;51.654;5.476;2023-05-19T09:45:59;7.30;;;1.30;;
72920;SDS011;61064;51.654;5.476;2023-05-19T09:48:28;7.40;;;1.40;;
72920;SDS011;61064;51.654;5.476;2023-05-19T09:50:54;6.97;;;1.80;;
72920;SDS011;61064;51.654;5.476;2023-05-19T09:53:42;9.25;;;1.42;;
72920;SDS011;61064;51.654;5.476;2023-05-19T09:56:10;7.47;;;1.50;;
72920;SDS011;61064;51.654;5.476;2023-05-19T09:58:40;6.80;;;1.20;;
72920;SDS011;61064;51.654;5.476;2023-05-19T10:01:06;10.02;;;1.42;;
72920;SDS011;61064;51.654;5.476;2023-05-19T10:03:35;6.75;;;1.30;;
72920;SDS011;61064;51.654;5.476;2023-05-19T10:06:02;7.43;;;2.10;;
72920;SDS011;61064;51.654;5.476;2023-05-19T10:08:29;8.50;;;1.60;;
72920;SDS011;61064;51.654;5.476;2023-05-19T10:10:56;8.10;;;1.17;;
72920;SDS011;61064;51.654;5.476;2023-05-19T10:13:22;7.28;;;1.40;;
72920;SDS011;61064;51.654;5.476;2023-05-19T10:15:49;5.70;;;1.10;;
72920;SDS011;61064;51.654;5.476;2023-05-19T10:18:16;9.30;;;1.50;;
72920;SDS011;61064;51.654;5.476;2023-05-19T10:20:42;8.18;;;1.10;;
72920;SDS011;61064;51.654;5.476;2023-05-19T10:23:08;7.93;;;1.30;;
72920;SDS011;61064;51.654;5.476;2023-05-19T10:25:33;7.53;;;1.37;;
72920;SDS011;61064;51.654;5.476;2023-05-19T10:28:10;6.13;;;1.30;;
72920;SDS011;61064;51.654;5.476;2023-05-19T10:30:40;6.22;;;1.50;;
72920;SDS011;61064;51.654;5.476;2023-05-19T10:33:09;7.83;;;1.37;;
72920;SDS011;61064;51.654;5.476;2023-05-19T10:41:27;7.72;;;1.40;;
72920;SDS011;61064;51.654;5.476;2023-05-19T10:46:58;9.23;;;1.53;;
72920;SDS011;61064;51.654;5.476;2023-05-19T10:49:23;7.25;;;1.65;;
72920;SDS011;61064;51.654;5.476;2023-05-19T10:51:50;7.63;;;1.50;;
72920;SDS011;61064;51.654;5.476;2023-05-19T10:54:17;8.60;;;1.92;;
72920;SDS011;61064;51.654;5.476;2023-05-19T10:57:08;8.77;;;2.00;;
72920;SDS011;61064;51.654;5.476;2023-05-19T10:59:39;8.35;;;1.60;;
72920;SDS011;61064;51.654;5.476;2023-05-19T11:02:35;8.50;;;1.92;;
72920;SDS011;61064;51.654;5.476;2023-05-19T11:05:12;6.63;;;1.33;;
72920;SDS011;61064;51.654;5.476;2023-05-19T11:07:43;10.73;;;1.85;;
72920;SDS011;61064;51.654;5.476;2023-05-19T11:10:23;7.50;;;1.83;;
72920;SDS011;61064;51.654;5.476;2023-05-19T11:12:49;8.32;;;1.80;;
72920;SDS011;61064;51.654;5.476;2023-05-19T11:15:17;8.65;;;1.80;;
72920;SDS011;61064;51.654;5.476;2023-05-19T11:17:46;8.30;;;1.80;;
72920;SDS011;61064;51.654;5.476;2023-05-19T11:20:20;8.75;;;1.90;;
72920;SDS011;61064;51.654;5.476;2023-05-19T11:23:00;8.85;;;1.80;;
72920;SDS011;61064;51.654;5.476;2023-05-19T11:28:20;7.43;;;1.80;;
72920;SDS011;61064;51.654;5.476;2023-05-19T11:30:57;9.10;;;1.80;;
72920;SDS011;61064;51.654;5.476;2023-05-19T11:33:26;7.57;;;1.70;;
72920;SDS011;61064;51.654;5.476;2023-05-19T11:35:52;9.40;;;1.85;;
72920;SDS011;61064;51.654;5.476;2023-05-19T11:38:21;7.85;;;1.77;;
72920;SDS011;61064;51.654;5.476;2023-05-19T11:40:48;7.03;;;1.70;;
72920;SDS011;61064;51.654;5.476;2023-05-19T11:43:16;6.93;;;1.30;;
72920;SDS011;61064;51.654;5.476;2023-05-19T11:45:42;7.20;;;1.60;;
72920;SDS011;61064;51.654;5.476;2023-05-19T11:48:11;6.68;;;1.38;;
72920;SDS011;61064;51.654;5.476;2023-05-19T11:50:41;7.57;;;1.40;;
72920;SDS011;61064;51.654;5.476;2023-05-19T11:53:07;8.23;;;1.88;;
72920;SDS011;61064;51.654;5.476;2023-05-19T11:55:43;6.78;;;1.80;;
72920;SDS011;61064;51.654;5.476;2023-05-19T11:58:13;7.83;;;1.90;;
72920;SDS011;61064;51.654;5.476;2023-05-19T12:00:39;8.82;;;1.70;;
72920;SDS011;61064;51.654;5.476;2023-05-19T12:03:05;10.27;;;1.80;;
72920;SDS011;61064;51.654;5.476;2023-05-19T12:05:32;8.13;;;1.42;;
72920;SDS011;61064;51.654;5.476;2023-05-19T12:08:05;7.72;;;1.55;;
72920;SDS011;61064;51.654;5.476;2023-05-19T12:10:34;8.23;;;1.47;;
72920;SDS011;61064;51.654;5.476;2023-05-19T12:12:59;10.13;;;1.83;;
72920;SDS011;61064;51.654;5.476;2023-05-19T12:15:29;10.02;;;1.65;;
72920;SDS011;61064;51.654;5.476;2023-05-19T12:17:57;8.05;;;1.63;;
72920;SDS011;61064;51.654;5.476;2023-05-19T12:20:30;9.57;;;2.10;;
72920;SDS011;61064;51.654;5.476;2023-05-19T12:23:02;7.57;;;1.80;;
72920;SDS011;61064;51.654;5.476;2023-05-19T12:25:28;8.48;;;1.90;;
72920;SDS011;61064;51.654;5.476;2023-05-19T12:27:58;11.23;;;2.17;;
72920;SDS011;61064;51.654;5.476;2023-05-19T12:30:36;8.45;;;1.90;;
72920;SDS011;61064;51.654;5.476;2023-05-19T12:33:02;10.77;;;2.10;;
72920;SDS011;61064;51.654;5.476;2023-05-19T12:35:28;11.63;;;1.90;;
72920;SDS011;61064;51.654;5.476;2023-05-19T12:38:05;6.97;;;1.83;;
72920;SDS011;61064;51.654;5.476;2023-05-19T12:40:34;9.87;;;2.40;;
72920;SDS011;61064;51.654;5.476;2023-05-19T12:43:02;8.55;;;1.90;;
72920;SDS011;61064;51.654;5.476;2023-05-19T12:45:27;7.82;;;1.95;;
72920;SDS011;61064;51.654;5.476;2023-05-19T12:47:58;7.78;;;2.03;;
72920;SDS011;61064;51.654;5.476;2023-05-19T12:50:30;6.82;;;1.90;;
72920;SDS011;61064;51.654;5.476;2023-05-19T12:52:56;7.30;;;1.70;;
72920;SDS011;61064;51.654;5.476;2023-05-19T12:55:23;8.18;;;1.67;;
72920;SDS011;61064;51.654;5.476;2023-05-19T12:57:49;8.47;;;1.70;;
72920;SDS011;61064;51.654;5.476;2023-05-19T13:00:21;6.97;;;1.77;;
72920;SDS011;61064;51.654;5.476;2023-05-19T13:02:56;9.05;;;2.25;;
72920;SDS011;61064;51.654;5.476;2023-05-19T13:05:22;5.95;;;1.70;;
72920;SDS011;61064;51.654;5.476;2023-05-19T13:08:03;8.55;;;1.88;;
72920;SDS011;61064;51.654;5.476;2023-05-19T13:10:37;8.40;;;1.93;;
72920;SDS011;61064;51.654;5.476;2023-05-19T13:13:04;9.68;;;2.13;;
72920;SDS011;61064;51.654;5.476;2023-05-19T13:15:33;7.18;;;1.90;;
72920;SDS011;61064;51.654;5.476;2023-05-19T13:18:02;9.10;;;1.88;;
72920;SDS011;61064;51.654;5.476;2023-05-19T13:20:30;7.50;;;1.80;;
72920;SDS011;61064;51.654;5.476;2023-05-19T13:22:55;9.73;;;1.80;;
72920;SDS011;61064;51.654;5.476;2023-05-19T13:25:21;7.17;;;1.80;;
72920;SDS011;61064;51.654;5.476;2023-05-19T13:27:47;8.07;;;1.70;;
72920;SDS011;61064;51.654;5.476;2023-05-19T13:30:13;7.55;;;1.95;;
72920;SDS011;61064;51.654;5.476;2023-05-19T13:32:42;9.87;;;2.03;;
72920;SDS011;61064;51.654;5.476;2023-05-19T13:35:08;9.13;;;1.90;;
72920;SDS011;61064;51.654;5.476;2023-05-19T13:37:34;9.67;;;2.00;;
72920;SDS011;61064;51.654;5.476;2023-05-19T13:39:59;7.40;;;1.90;;
72920;SDS011;61064;51.654;5.476;2023-05-19T13:42:25;8.13;;;1.93;;
72920;SDS011;61064;51.654;5.476;2023-05-19T13:44:54;7.78;;;1.77;;
72920;SDS011;61064;51.654;5.476;2023-05-19T13:47:20;9.43;;;1.90;;
72920;SDS011;61064;51.654;5.476;2023-05-19T13:49:49;7.45;;;1.95;;
72920;SDS011;61064;51.654;5.476;2023-05-19T13:52:15;9.65;;;3.08;;
72920;SDS011;61064;51.654;5.476;2023-05-19T13:54:41;7.78;;;2.20;;
72920;SDS011;61064;51.654;5.476;2023-05-19T13:57:06;9.00;;;1.90;;
72920;SDS011;61064;51.654;5.476;2023-05-19T13:59:32;9.02;;;1.98;;
72920;SDS011;61064;51.654;5.476;2023-05-19T14:01:58;10.32;;;1.80;;
72920;SDS011;61064;51.654;5.476;2023-05-19T14:04:24;7.03;;;2.00;;
72920;SDS011;61064;51.654;5.476;2023-05-19T14:06:50;6.32;;;1.60;;
72920;SDS011;61064;51.654;5.476;2023-05-19T14:09:15;8.97;;;1.70;;
72920;SDS011;61064;51.654;5.476;2023-05-19T14:11:41;7.90;;;1.70;;
72920;SDS011;61064;51.654;5.476;2023-05-19T14:14:07;6.50;;;1.70;;
72920;SDS011;61064;51.654;5.476;2023-05-19T14:16:32;9.73;;;1.73;;
72920;SDS011;61064;51.654;5.476;2023-05-19T14:18:58;8.00;;;2.00;;
72920;SDS011;61064;51.654;5.476;2023-05-19T14:21:23;7.50;;;2.10;;
72920;SDS011;61064;51.654;5.476;2023-05-19T14:23:48;7.30;;;2.00;;
72920;SDS011;61064;51.654;5.476;2023-05-19T14:26:14;7.20;;;1.67;;
72920;SDS011;61064;51.654;5.476;2023-05-19T14:28:39;8.25;;;1.88;;
72920;SDS011;61064;51.654;5.476;2023-05-19T14:31:09;8.13;;;1.80;;
72920;SDS011;61064;51.654;5.476;2023-05-19T14:33:38;9.67;;;2.07;;
72920;SDS011;61064;51.654;5.476;2023-05-19T14:36:04;7.93;;;2.10;;
72920;SDS011;61064;51.654;5.476;2023-05-19T14:38:30;7.80;;;1.70;;
72920;SDS011;61064;51.654;5.476;2023-05-19T14:40:56;7.53;;;1.80;;
72920;SDS011;61064;51.654;5.476;2023-05-19T14:43:21;7.13;;;1.90;;
72920;SDS011;61064;51.654;5.476;2023-05-19T14:45:47;8.32;;;2.05;;
72920;SDS011;61064;51.654;5.476;2023-05-19T14:48:12;8.57;;;2.30;;
72920;SDS011;61064;51.654;5.476;2023-05-19T14:50:38;7.23;;;2.10;;
72920;SDS011;61064;51.654;5.476;2023-05-19T14:53:03;6.90;;;1.90;;
72920;SDS011;61064;51.654;5.476;2023-05-19T14:55:29;7.57;;;1.80;;
72920;SDS011;61064;51.654;5.476;2023-05-19T14:57:57;7.57;;;1.70;;
72920;SDS011;61064;51.654;5.476;2023-05-19T15:00:24;7.95;;;1.80;;
72920;SDS011;61064;51.654;5.476;2023-05-19T15:02:51;9.45;;;2.45;;
72920;SDS011;61064;51.654;5.476;2023-05-19T15:05:17;8.43;;;2.40;;
72920;SDS011;61064;51.654;5.476;2023-05-19T15:07:42;8.70;;;2.00;;
72920;SDS011;61064;51.654;5.476;2023-05-19T15:10:08;7.67;;;2.07;;
72920;SDS011;61064;51.654;5.476;2023-05-19T15:12:34;7.90;;;1.95;;